sensor_id;sensor_type;location;lat;lon;timestamp;P1;durP1;ratioP1;P2;durP2;ratioP2
66437;SDS011;54537;47.972;11.662;2024-03-23T07:52:59;3.90;;;1.33;;
66437;SDS011;54537;47.972;11.662;2024-03-23T07:55:25;2.13;;;1.10;;
66437;SDS011;54537;47.972;11.662;2024-03-23T07:57:51;1.85;;;1.20;;
66437;SDS011;54537;47.972;11.662;2024-03-23T08:00:18;3.10;;;1.50;;
66437;SDS011;54537;47.972;11.662;2024-03-23T08:02:45;2.42;;;1.50;;
66437;SDS011;54537;47.972;11.662;2024-03-23T08:05:12;2.17;;;1.40;;
66437;SDS011;54537;47.972;11.662;2024-03-23T08:07:38;3.75;;;1.50;;
66437;SDS011;54537;47.972;11.662;2024-03-23T08:10:04;3.78;;;1.90;;
66437;SDS011;54537;47.972;11.662;2024-03-23T08:12:31;7.18;;;1.83;;
66437;SDS011;54537;47.972;11.662;2024-03-23T08:14:57;2.33;;;1.63;;
66437;SDS011;54537;47.972;11.662;2024-03-23T08:17:23;3.97;;;1.15;;
66437;SDS011;54537;47.972;11.662;2024-03-23T08:19:49;3.88;;;1.10;;
66437;SDS011;54537;47.972;11.662;2024-03-23T08:22:19;1.48;;;0.90;;
66437;SDS011;54537;47.972;11.662;2024-03-23T08:24:44;1.73;;;0.90;;
66437;SDS011;54537;47.972;11.662;2024-03-23T08:27:11;3.22;;;1.00;;
66437;SDS011;54537;47.972;11.662;2024-03-23T08:29:37;1.08;;;0.88;;
66437;SDS011;54537;47.972;11.662;2024-03-23T08:32:03;2.83;;;1.30;;
66437;SDS011;54537;47.972;11.662;2024-03-23T08:34:29;2.30;;;1.00;;
66437;SDS011;54537;47.972;11.662;2024-03-23T08:36:55;2.65;;;1.40;;
66437;SDS011;54537;47.972;11.662;2024-03-23T08:39:22;4.03;;;1.30;;
66437;SDS011;54537;47.972;11.662;2024-03-23T08:41:50;2.40;;;1.40;;
66437;SDS011;54537;47.972;11.662;2024-03-23T08:44:15;3.47;;;1.58;;
66437;SDS011;54537;47.972;11.662;2024-03-23T08:46:42;3.80;;;1.40;;
66437;SDS011;54537;47.972;11.662;2024-03-23T08:49:07;2.50;;;1.40;;
66437;SDS011;54537;47.972;11.662;2024-03-23T08:51:34;2.42;;;1.40;;
66437;SDS011;54537;47.972;11.662;2024-03-23T08:53:59;3.13;;;1.43;;
66437;SDS011;54537;47.972;11.662;2024-03-23T08:56:27;2.70;;;1.30;;
66437;SDS011;54537;47.972;11.662;2024-03-23T08:58:53;3.15;;;1.30;;
66437;SDS011;54537;47.972;11.662;2024-03-23T09:01:19;2.47;;;1.30;;
66437;SDS011;54537;47.972;11.662;2024-03-23T09:03:45;3.58;;;1.55;;
66437;SDS011;54537;47.972;11.662;2024-03-23T09:06:13;3.58;;;1.70;;
66437;SDS011;54537;47.972;11.662;2024-03-23T09:08:39;4.18;;;1.60;;
66437;SDS011;54537;47.972;11.662;2024-03-23T09:11:07;2.40;;;1.40;;
66437;SDS011;54537;47.972;11.662;2024-03-23T09:13:35;4.30;;;1.60;;
66437;SDS011;54537;47.972;11.662;2024-03-23T09:16:02;5.20;;;1.70;;
66437;SDS011;54537;47.972;11.662;2024-03-23T09:18:31;3.35;;;1.70;;
66437;SDS011;54537;47.972;11.662;2024-03-23T09:20:58;3.20;;;1.58;;
66437;SDS011;54537;47.972;11.662;2024-03-23T09:23:23;3.67;;;1.73;;
66437;SDS011;54537;47.972;11.662;2024-03-23T09:25:50;3.10;;;1.60;;
66437;SDS011;54537;47.972;11.662;2024-03-23T09:28:15;3.35;;;1.80;;
66437;SDS011;54537;47.972;11.662;2024-03-23T09:30:43;3.28;;;1.60;;
66437;SDS011;54537;47.972;11.662;2024-03-23T09:33:09;3.30;;;1.70;;
66437;SDS011;54537;47.972;11.662;2024-03-23T09:35:36;5.80;;;2.30;;
66437;SDS011;54537;47.972;11.662;2024-03-23T09:38:02;3.40;;;1.85;;
66437;SDS011;54537;47.972;11.662;2024-03-23T09:50:15;4.28;;;1.65;;
66437;SDS011;54537;47.972;11.662;2024-03-23T09:52:41;1.73;;;1.17;;
66437;SDS011;54537;47.972;11.662;2024-03-23T09:55:07;2.35;;;1.38;;
66437;SDS011;54537;47.972;11.662;2024-03-23T09:57:33;2.58;;;0.68;;
66437;SDS011;54537;47.972;11.662;2024-03-23T10:04:53;1.20;;;0.70;;
66437;SDS011;54537;47.972;11.662;2024-03-23T10:07:19;1.05;;;0.65;;
66437;SDS011;54537;47.972;11.662;2024-03-23T10:09:46;2.17;;;0.80;;
66437;SDS011;54537;47.972;11.662;2024-03-23T10:12:13;1.33;;;0.68;;
66437;SDS011;54537;47.972;11.662;2024-03-23T10:22:04;1.58;;;0.95;;
66437;SDS011;54537;47.972;11.662;2024-03-23T10:24:31;1.95;;;1.00;;
66437;SDS011;54537;47.972;11.662;2024-03-23T10:26:56;1.67;;;0.60;;
66437;SDS011;54537;47.972;11.662;2024-03-23T10:29:23;2.17;;;1.00;;
66437;SDS011;54537;47.972;11.662;2024-03-23T10:31:48;1.55;;;0.80;;
66437;SDS011;54537;47.972;11.662;2024-03-23T10:34:15;1.48;;;0.93;;
66437;SDS011;54537;47.972;11.662;2024-03-23T10:36:40;0.50;;;0.50;;
66437;SDS011;54537;47.972;11.662;2024-03-23T10:41:35;0.55;;;0.50;;
66437;SDS011;54537;47.972;11.662;2024-03-23T10:46:27;0.57;;;0.57;;
66437;SDS011;54537;47.972;11.662;2024-03-23T10:58:40;0.57;;;0.57;;
66437;SDS011;54537;47.972;11.662;2024-03-23T11:03:37;0.70;;;0.65;;
66437;SDS011;54537;47.972;11.662;2024-03-23T11:06:04;3.03;;;1.02;;
66437;SDS011;54537;47.972;11.662;2024-03-23T11:08:34;1.52;;;0.90;;
66437;SDS011;54537;47.972;11.662;2024-03-23T11:11:15;2.58;;;1.30;;
66437;SDS011;54537;47.972;11.662;2024-03-23T11:16:21;1.17;;;0.73;;
66437;SDS011;54537;47.972;11.662;2024-03-23T14:49:32;4.32;;;1.52;;
66437;SDS011;54537;47.972;11.662;2024-03-23T14:52:00;5.85;;;1.63;;
66437;SDS011;54537;47.972;11.662;2024-03-23T14:54:26;5.70;;;2.05;;
66437;SDS011;54537;47.972;11.662;2024-03-23T14:56:52;3.88;;;1.20;;
66437;SDS011;54537;47.972;11.662;2024-03-23T15:01:44;2.00;;;1.08;;
66437;SDS011;54537;47.972;11.662;2024-03-23T15:04:10;5.43;;;1.52;;
66437;SDS011;54537;47.972;11.662;2024-03-23T15:06:36;7.28;;;2.10;;
66437;SDS011;54537;47.972;11.662;2024-03-23T15:09:03;7.72;;;2.45;;
66437;SDS011;54537;47.972;11.662;2024-03-23T15:11:32;7.78;;;1.95;;
66437;SDS011;54537;47.972;11.662;2024-03-23T15:13:58;5.72;;;2.33;;
66437;SDS011;54537;47.972;11.662;2024-03-23T15:16:24;4.78;;;2.15;;
66437;SDS011;54537;47.972;11.662;2024-03-23T15:18:50;5.00;;;2.13;;
66437;SDS011;54537;47.972;11.662;2024-03-23T15:21:16;8.60;;;2.00;;
66437;SDS011;54537;47.972;11.662;2024-03-23T15:23:45;12.50;;;2.33;;
66437;SDS011;54537;47.972;11.662;2024-03-23T15:26:14;5.68;;;2.08;;
66437;SDS011;54537;47.972;11.662;2024-03-23T15:28:40;9.52;;;3.13;;
66437;SDS011;54537;47.972;11.662;2024-03-23T15:31:27;6.88;;;2.13;;
66437;SDS011;54537;47.972;11.662;2024-03-23T15:33:53;8.75;;;2.40;;
66437;SDS011;54537;47.972;11.662;2024-03-23T15:36:20;8.40;;;2.42;;
66437;SDS011;54537;47.972;11.662;2024-03-23T15:38:45;4.75;;;2.30;;
66437;SDS011;54537;47.972;11.662;2024-03-23T15:41:15;7.40;;;2.50;;
66437;SDS011;54537;47.972;11.662;2024-03-23T15:43:41;6.60;;;2.30;;
66437;SDS011;54537;47.972;11.662;2024-03-23T15:48:34;8.32;;;2.50;;
66437;SDS011;54537;47.972;11.662;2024-03-23T15:51:01;10.00;;;3.20;;
66437;SDS011;54537;47.972;11.662;2024-03-23T15:53:27;4.95;;;2.08;;
66437;SDS011;54537;47.972;11.662;2024-03-23T15:55:54;7.65;;;2.05;;
66437;SDS011;54537;47.972;11.662;2024-03-23T15:58:21;4.85;;;1.70;;
66437;SDS011;54537;47.972;11.662;2024-03-23T16:00:53;3.67;;;2.00;;
66437;SDS011;54537;47.972;11.662;2024-03-23T16:03:19;6.90;;;2.25;;
66437;SDS011;54537;47.972;11.662;2024-03-23T16:05:49;6.22;;;2.45;;
66437;SDS011;54537;47.972;11.662;2024-03-23T16:08:15;3.50;;;1.70;;
66437;SDS011;54537;47.972;11.662;2024-03-23T16:10:42;6.55;;;2.33;;
66437;SDS011;54537;47.972;11.662;2024-03-23T16:13:07;5.25;;;1.80;;
66437;SDS011;54537;47.972;11.662;2024-03-23T16:15:35;4.25;;;1.63;;
66437;SDS011;54537;47.972;11.662;2024-03-23T16:18:00;5.53;;;2.00;;
66437;SDS011;54537;47.972;11.662;2024-03-23T16:20:27;6.53;;;1.67;;
66437;SDS011;54537;47.972;11.662;2024-03-23T16:22:52;5.20;;;2.08;;
66437;SDS011;54537;47.972;11.662;2024-03-23T16:25:19;3.72;;;1.60;;
66437;SDS011;54537;47.972;11.662;2024-03-23T16:27:44;4.47;;;1.90;;
66437;SDS011;54537;47.972;11.662;2024-03-23T16:30:11;5.93;;;1.92;;
66437;SDS011;54537;47.972;11.662;2024-03-23T16:32:39;5.97;;;2.00;;
66437;SDS011;54537;47.972;11.662;2024-03-23T16:35:06;4.47;;;1.60;;
66437;SDS011;54537;47.972;11.662;2024-03-23T16:37:34;4.70;;;2.03;;
66437;SDS011;54537;47.972;11.662;2024-03-23T16:40:01;5.07;;;1.85;;
66437;SDS011;54537;47.972;11.662;2024-03-23T16:42:26;4.03;;;1.98;;
66437;SDS011;54537;47.972;11.662;2024-03-23T16:44:53;8.73;;;2.28;;
66437;SDS011;54537;47.972;11.662;2024-03-23T16:47:19;4.97;;;1.77;;
66437;SDS011;54537;47.972;11.662;2024-03-23T16:52:12;7.53;;;2.80;;
66437;SDS011;54537;47.972;11.662;2024-03-23T16:57:04;5.75;;;1.55;;
66437;SDS011;54537;47.972;11.662;2024-03-23T16:59:30;5.82;;;2.10;;
66437;SDS011;54537;47.972;11.662;2024-03-23T17:04:22;4.50;;;2.00;;
66437;SDS011;54537;47.972;11.662;2024-03-23T17:06:50;6.57;;;1.92;;
66437;SDS011;54537;47.972;11.662;2024-03-23T17:09:16;5.72;;;1.50;;
66437;SDS011;54537;47.972;11.662;2024-03-23T17:11:42;4.38;;;1.90;;
66437;SDS011;54537;47.972;11.662;2024-03-23T17:14:08;3.65;;;1.23;;
66437;SDS011;54537;47.972;11.662;2024-03-23T17:19:00;4.15;;;1.95;;
66437;SDS011;54537;47.972;11.662;2024-03-23T17:23:54;9.02;;;3.00;;
66437;SDS011;54537;47.972;11.662;2024-03-23T17:26:22;10.15;;;3.22;;
66437;SDS011;54537;47.972;11.662;2024-03-23T17:28:49;7.25;;;2.92;;
66437;SDS011;54537;47.972;11.662;2024-03-23T17:31:14;7.55;;;2.67;;
66437;SDS011;54537;47.972;11.662;2024-03-23T17:33:41;4.95;;;2.45;;
66437;SDS011;54537;47.972;11.662;2024-03-23T17:36:07;7.35;;;2.40;;
66437;SDS011;54537;47.972;11.662;2024-03-23T17:38:34;6.03;;;2.38;;
66437;SDS011;54537;47.972;11.662;2024-03-23T17:41:03;3.83;;;1.63;;
66437;SDS011;54537;47.972;11.662;2024-03-23T17:43:29;3.15;;;1.50;;
66437;SDS011;54537;47.972;11.662;2024-03-23T17:45:55;2.97;;;1.40;;
66437;SDS011;54537;47.972;11.662;2024-03-23T17:48:22;3.55;;;1.67;;
66437;SDS011;54537;47.972;11.662;2024-03-23T17:50:47;5.50;;;1.40;;
66437;SDS011;54537;47.972;11.662;2024-03-23T17:53:14;2.67;;;1.48;;
66437;SDS011;54537;47.972;11.662;2024-03-23T17:55:39;4.85;;;1.70;;
66437;SDS011;54537;47.972;11.662;2024-03-23T17:58:07;2.55;;;1.38;;
66437;SDS011;54537;47.972;11.662;2024-03-23T18:00:33;5.32;;;1.50;;
66437;SDS011;54537;47.972;11.662;2024-03-23T18:02:59;8.32;;;1.80;;
66437;SDS011;54537;47.972;11.662;2024-03-23T18:05:25;6.65;;;2.03;;
66437;SDS011;54537;47.972;11.662;2024-03-23T18:07:51;6.05;;;2.10;;
66437;SDS011;54537;47.972;11.662;2024-03-23T18:10:17;4.00;;;1.63;;
66437;SDS011;54537;47.972;11.662;2024-03-23T18:12:43;11.80;;;2.70;;
66437;SDS011;54537;47.972;11.662;2024-03-23T18:15:12;8.93;;;4.90;;
66437;SDS011;54537;47.972;11.662;2024-03-23T18:17:39;10.32;;;3.80;;
66437;SDS011;54537;47.972;11.662;2024-03-23T18:20:05;7.10;;;2.63;;
66437;SDS011;54537;47.972;11.662;2024-03-23T18:22:32;8.50;;;2.67;;
66437;SDS011;54537;47.972;11.662;2024-03-23T18:24:57;5.30;;;2.13;;
66437;SDS011;54537;47.972;11.662;2024-03-23T18:27:24;5.40;;;2.00;;
66437;SDS011;54537;47.972;11.662;2024-03-23T18:29:50;4.45;;;2.42;;
66437;SDS011;54537;47.972;11.662;2024-03-23T18:32:18;5.22;;;2.15;;
66437;SDS011;54537;47.972;11.662;2024-03-23T18:34:43;7.35;;;3.17;;
66437;SDS011;54537;47.972;11.662;2024-03-23T18:37:10;5.88;;;2.40;;
66437;SDS011;54537;47.972;11.662;2024-03-23T18:39:35;3.97;;;1.23;;
66437;SDS011;54537;47.972;11.662;2024-03-23T18:42:02;2.80;;;1.25;;
66437;SDS011;54537;47.972;11.662;2024-03-23T18:44:28;4.38;;;1.40;;
66437;SDS011;54537;47.972;11.662;2024-03-23T18:46:54;3.70;;;1.35;;
66437;SDS011;54537;47.972;11.662;2024-03-23T18:49:21;2.80;;;1.00;;
66437;SDS011;54537;47.972;11.662;2024-03-23T18:51:48;3.03;;;1.30;;
66437;SDS011;54537;47.972;11.662;2024-03-23T18:54:13;2.72;;;1.25;;
66437;SDS011;54537;47.972;11.662;2024-03-23T18:56:40;3.88;;;1.42;;
66437;SDS011;54537;47.972;11.662;2024-03-23T18:59:05;2.95;;;1.30;;
66437;SDS011;54537;47.972;11.662;2024-03-23T19:01:32;3.50;;;1.33;;
66437;SDS011;54537;47.972;11.662;2024-03-23T19:03:59;4.35;;;2.15;;
66437;SDS011;54537;47.972;11.662;2024-03-23T19:06:26;5.15;;;1.33;;
66437;SDS011;54537;47.972;11.662;2024-03-23T19:08:52;6.70;;;1.40;;
66437;SDS011;54537;47.972;11.662;2024-03-23T19:11:18;3.83;;;1.38;;
66437;SDS011;54537;47.972;11.662;2024-03-23T19:13:45;3.45;;;1.80;;
66437;SDS011;54537;47.972;11.662;2024-03-23T19:16:10;3.45;;;1.63;;
66437;SDS011;54537;47.972;11.662;2024-03-23T19:18:37;4.45;;;1.98;;
66437;SDS011;54537;47.972;11.662;2024-03-23T19:21:03;3.42;;;1.48;;
66437;SDS011;54537;47.972;11.662;2024-03-23T19:23:31;5.05;;;2.15;;
66437;SDS011;54537;47.972;11.662;2024-03-23T19:25:57;7.32;;;1.95;;
66437;SDS011;54537;47.972;11.662;2024-03-23T19:28:24;8.02;;;2.63;;
66437;SDS011;54537;47.972;11.662;2024-03-23T19:30:50;7.25;;;2.50;;
66437;SDS011;54537;47.972;11.662;2024-03-23T19:33:17;7.57;;;2.40;;
66437;SDS011;54537;47.972;11.662;2024-03-23T19:35:43;3.42;;;1.52;;
66437;SDS011;54537;47.972;11.662;2024-03-23T19:38:11;3.22;;;1.23;;
66437;SDS011;54537;47.972;11.662;2024-03-23T19:40:38;5.78;;;1.75;;
66437;SDS011;54537;47.972;11.662;2024-03-23T19:43:04;4.70;;;1.65;;
66437;SDS011;54537;47.972;11.662;2024-03-23T19:45:31;5.15;;;1.92;;
66437;SDS011;54537;47.972;11.662;2024-03-23T19:47:59;7.15;;;1.73;;
66437;SDS011;54537;47.972;11.662;2024-03-23T19:50:25;4.97;;;1.88;;
66437;SDS011;54537;47.972;11.662;2024-03-23T19:52:51;3.25;;;1.80;;
66437;SDS011;54537;47.972;11.662;2024-03-23T19:55:17;6.05;;;2.03;;
66437;SDS011;54537;47.972;11.662;2024-03-23T19:57:45;5.35;;;1.58;;
66437;SDS011;54537;47.972;11.662;2024-03-23T20:00:11;3.97;;;1.90;;
66437;SDS011;54537;47.972;11.662;2024-03-23T20:02:39;6.13;;;1.73;;
66437;SDS011;54537;47.972;11.662;2024-03-23T20:05:04;3.40;;;1.52;;
66437;SDS011;54537;47.972;11.662;2024-03-23T20:07:31;3.47;;;1.65;;
66437;SDS011;54537;47.972;11.662;2024-03-23T20:09:57;4.57;;;2.05;;
66437;SDS011;54537;47.972;11.662;2024-03-23T20:12:23;2.95;;;1.80;;
66437;SDS011;54537;47.972;11.662;2024-03-23T20:14:50;3.10;;;1.50;;
66437;SDS011;54537;47.972;11.662;2024-03-23T20:17:16;3.60;;;1.50;;
66437;SDS011;54537;47.972;11.662;2024-03-23T20:19:42;4.85;;;1.85;;
66437;SDS011;54537;47.972;11.662;2024-03-23T20:22:09;5.28;;;2.00;;
66437;SDS011;54537;47.972;11.662;2024-03-23T20:24:35;5.70;;;1.52;;
66437;SDS011;54537;47.972;11.662;2024-03-23T20:27:01;3.42;;;1.40;;
66437;SDS011;54537;47.972;11.662;2024-03-23T20:29:27;2.95;;;1.42;;
66437;SDS011;54537;47.972;11.662;2024-03-23T20:31:55;5.63;;;1.83;;
66437;SDS011;54537;47.972;11.662;2024-03-23T20:34:21;6.28;;;2.13;;
66437;SDS011;54537;47.972;11.662;2024-03-23T20:36:47;1.92;;;0.93;;
66437;SDS011;54537;47.972;11.662;2024-03-23T20:39:13;2.92;;;1.20;;
66437;SDS011;54537;47.972;11.662;2024-03-23T20:41:40;3.78;;;1.50;;
66437;SDS011;54537;47.972;11.662;2024-03-23T20:44:06;4.65;;;1.45;;
66437;SDS011;54537;47.972;11.662;2024-03-23T20:46:32;10.43;;;2.72;;
66437;SDS011;54537;47.972;11.662;2024-03-23T20:48:59;3.95;;;2.22;;
66437;SDS011;54537;47.972;11.662;2024-03-23T20:51:25;6.28;;;1.30;;
66437;SDS011;54537;47.972;11.662;2024-03-23T20:53:51;5.93;;;1.30;;
66437;SDS011;54537;47.972;11.662;2024-03-23T20:56:17;5.57;;;2.13;;
66437;SDS011;54537;47.972;11.662;2024-03-23T20:58:43;6.20;;;2.67;;
66437;SDS011;54537;47.972;11.662;2024-03-23T21:01:09;6.13;;;1.90;;
66437;SDS011;54537;47.972;11.662;2024-03-23T21:03:35;5.35;;;1.67;;
66437;SDS011;54537;47.972;11.662;2024-03-23T21:06:04;2.75;;;1.20;;
66437;SDS011;54537;47.972;11.662;2024-03-23T21:08:32;2.47;;;1.10;;
66437;SDS011;54537;47.972;11.662;2024-03-23T21:10:58;2.40;;;1.52;;
66437;SDS011;54537;47.972;11.662;2024-03-23T21:13:25;4.60;;;1.35;;
66437;SDS011;54537;47.972;11.662;2024-03-23T21:15:53;3.83;;;1.35;;
66437;SDS011;54537;47.972;11.662;2024-03-23T21:18:22;5.38;;;1.30;;
66437;SDS011;54537;47.972;11.662;2024-03-23T21:20:52;4.40;;;1.17;;
66437;SDS011;54537;47.972;11.662;2024-03-23T21:23:20;2.75;;;1.58;;
66437;SDS011;54537;47.972;11.662;2024-03-23T21:25:53;1.25;;;1.00;;
66437;SDS011;54537;47.972;11.662;2024-03-23T21:28:19;3.50;;;1.08;;
66437;SDS011;54537;47.972;11.662;2024-03-23T21:30:45;2.38;;;1.25;;
66437;SDS011;54537;47.972;11.662;2024-03-23T21:33:11;1.25;;;0.63;;
66437;SDS011;54537;47.972;11.662;2024-03-23T21:35:37;1.38;;;0.82;;
66437;SDS011;54537;47.972;11.662;2024-03-23T21:38:03;1.42;;;0.95;;
66437;SDS011;54537;47.972;11.662;2024-03-23T21:40:31;1.95;;;0.65;;
66437;SDS011;54537;47.972;11.662;2024-03-23T21:42:57;2.20;;;0.73;;
66437;SDS011;54537;47.972;11.662;2024-03-23T21:45:23;2.08;;;0.77;;
66437;SDS011;54537;47.972;11.662;2024-03-23T21:47:49;2.70;;;0.90;;
66437;SDS011;54537;47.972;11.662;2024-03-23T21:50:15;2.67;;;0.75;;
66437;SDS011;54537;47.972;11.662;2024-03-23T21:52:41;0.85;;;0.77;;
66437;SDS011;54537;47.972;11.662;2024-03-23T21:55:07;1.25;;;0.75;;
66437;SDS011;54537;47.972;11.662;2024-03-23T21:57:36;1.40;;;0.73;;
66437;SDS011;54537;47.972;11.662;2024-03-23T22:00:01;0.98;;;0.68;;
66437;SDS011;54537;47.972;11.662;2024-03-23T22:02:28;2.08;;;0.88;;
66437;SDS011;54537;47.972;11.662;2024-03-23T22:04:54;2.28;;;1.02;;
66437;SDS011;54537;47.972;11.662;2024-03-23T22:07:21;4.45;;;0.80;;
66437;SDS011;54537;47.972;11.662;2024-03-23T22:09:51;3.13;;;1.10;;
66437;SDS011;54537;47.972;11.662;2024-03-23T22:12:18;2.15;;;0.90;;
66437;SDS011;54537;47.972;11.662;2024-03-23T22:14:45;1.70;;;0.55;;
66437;SDS011;54537;47.972;11.662;2024-03-23T22:17:11;1.67;;;0.63;;
66437;SDS011;54537;47.972;11.662;2024-03-23T22:19:37;6.75;;;1.00;;
66437;SDS011;54537;47.972;11.662;2024-03-23T22:22:03;0.68;;;0.65;;
66437;SDS011;54537;47.972;11.662;2024-03-23T22:24:31;1.35;;;0.63;;
66437;SDS011;54537;47.972;11.662;2024-03-23T22:26:57;0.52;;;0.35;;
66437;SDS011;54537;47.972;11.662;2024-03-23T22:29:23;2.38;;;0.80;;
66437;SDS011;54537;47.972;11.662;2024-03-23T22:31:51;1.38;;;0.60;;
66437;SDS011;54537;47.972;11.662;2024-03-23T22:34:16;2.03;;;0.70;;
66437;SDS011;54537;47.972;11.662;2024-03-23T22:36:43;1.73;;;0.65;;
66437;SDS011;54537;47.972;11.662;2024-03-23T22:39:08;0.88;;;0.70;;
66437;SDS011;54537;47.972;11.662;2024-03-23T22:41:35;1.38;;;0.60;;
66437;SDS011;54537;47.972;11.662;2024-03-23T22:44:00;1.35;;;0.70;;
66437;SDS011;54537;47.972;11.662;2024-03-23T22:46:27;3.13;;;0.77;;
66437;SDS011;54537;47.972;11.662;2024-03-23T22:48:54;0.80;;;0.60;;
66437;SDS011;54537;47.972;11.662;2024-03-23T22:51:20;0.43;;;0.43;;
66437;SDS011;54537;47.972;11.662;2024-03-23T22:53:46;0.95;;;0.68;;
66437;SDS011;54537;47.972;11.662;2024-03-23T22:56:12;1.85;;;1.13;;
66437;SDS011;54537;47.972;11.662;2024-03-23T22:58:38;0.70;;;0.70;;
66437;SDS011;54537;47.972;11.662;2024-03-23T23:01:05;0.57;;;0.57;;
66437;SDS011;54537;47.972;11.662;2024-03-23T23:03:32;0.80;;;0.57;;
66437;SDS011;54537;47.972;11.662;2024-03-23T23:06:01;0.90;;;0.52;;
66437;SDS011;54537;47.972;11.662;2024-03-23T23:08:29;0.52;;;0.52;;
66437;SDS011;54537;47.972;11.662;2024-03-23T23:10:56;1.48;;;0.85;;
66437;SDS011;54537;47.972;11.662;2024-03-23T23:13:22;1.42;;;0.80;;
66437;SDS011;54537;47.972;11.662;2024-03-23T23:15:49;1.25;;;0.80;;
66437;SDS011;54537;47.972;11.662;2024-03-23T23:18:14;2.88;;;0.68;;
66437;SDS011;54537;47.972;11.662;2024-03-23T23:20:42;1.15;;;0.80;;
66437;SDS011;54537;47.972;11.662;2024-03-23T23:23:09;1.05;;;0.80;;
66437;SDS011;54537;47.972;11.662;2024-03-23T23:25:36;1.27;;;0.80;;
66437;SDS011;54537;47.972;11.662;2024-03-23T23:28:01;1.38;;;0.73;;
66437;SDS011;54537;47.972;11.662;2024-03-23T23:30:28;1.90;;;0.68;;
66437;SDS011;54537;47.972;11.662;2024-03-23T23:32:53;1.00;;;0.55;;
66437;SDS011;54537;47.972;11.662;2024-03-23T23:35:20;1.67;;;0.82;;
66437;SDS011;54537;47.972;11.662;2024-03-23T23:37:45;1.80;;;0.70;;
66437;SDS011;54537;47.972;11.662;2024-03-23T23:40:13;0.75;;;0.63;;
66437;SDS011;54537;47.972;11.662;2024-03-23T23:42:39;1.70;;;0.70;;
66437;SDS011;54537;47.972;11.662;2024-03-23T23:45:06;0.95;;;0.60;;
66437;SDS011;54537;47.972;11.662;2024-03-23T23:47:34;2.22;;;0.70;;
66437;SDS011;54537;47.972;11.662;2024-03-23T23:50:01;1.27;;;0.60;;
66437;SDS011;54537;47.972;11.662;2024-03-23T23:52:27;2.35;;;0.90;;
66437;SDS011;54537;47.972;11.662;2024-03-23T23:54:53;1.50;;;0.80;;
66437;SDS011;54537;47.972;11.662;2024-03-23T23:57:20;1.70;;;0.80;;
66437;SDS011;54537;47.972;11.662;2024-03-23T23:59:47;1.58;;;0.73;;
